Startpagina
METAR-TAF:

METAR-TAF

Vliegvelden :

Entrammes

Laval, Frankrijk

breedte: 48-01-56N, lengte: 000-44-34W, hoogte: 101 m

Actueel weer

Dit bericht is 18 minuten geleden gemaakt, om 12:00 UTC
Wind 6 kt uit het oostzuidoosten, variërend tussen het oostnoordoosten en het zuidzuidoosten
Temperatuur 23°C
Vochtigheid 44%
Druk 1021 hPa
Zicht 10 km of meer
geen wolken onder 1500 m en geen cumulonimbus

METAR: LFOV 101200Z AUTO 12006KT 060V150 CAVOK 23/10 Q1021

Tijdstip: 14:18 (12:18 UTC)


TAF: ontbreekt

Waarnemingen en weersverwachtingen van meer dan 4000 vliegvelden (METAR en TAF).

De beschikbare stations zijn de gele en rode punten op de kaart.

Ga met uw muis naar het station om de naam te zien.

Klik dan om waarnemingen en weersverwachtingen te zien.

kaart wijzigen: klik op de groene knoppen met een zwart kruis om in te zoomen, op de groene knop met een streepje om uit te zoomen of op de groene pijlen voor aangrenzende kaarten.


METAR-TAF: